Time;durP1;ratioP1;P1;durP2;ratioP2;P2;SDS_P1;SDS_P2;PMS_P1;PMS_P2;Temp;Humidity;BMP_temperature;BMP_pressure;BME280_temperature;BME280_humidity;BME280_pressure;Samples;Min_cycle;Max_cycle;Signal;HPM_P1;HPM_P2
2021/05/25 00:00:54;;;;;;;3.60;2.63;;;;;;;15.45;52.96;99915.11;153936;1096;103233;-79
2021/05/25 00:03:58;;;;;;;6.03;2.80;;;;;;;15.47;53.08;99917.58;154012;1096;103220;-77
2021/05/25 00:07:02;;;;;;;4.43;2.70;;;;;;;15.45;53.43;99925.02;153994;1096;103218;-79
2021/05/25 00:10:07;;;;;;;3.45;2.68;;;;;;;15.43;53.39;99919.82;153935;1101;103221;-80
2021/05/25 00:13:11;;;;;;;4.00;3.00;;;;;;;15.43;53.41;99919.82;154009;1101;103242;-78
2021/05/25 00:16:14;;;;;;;4.57;3.10;;;;;;;15.41;53.71;99924.56;153942;1101;103139;-78
2021/05/25 00:19:19;;;;;;;5.95;3.10;;;;;;;15.39;53.79;99934.67;153908;1101;103132;-79
2021/05/25 00:22:23;;;;;;;5.60;2.90;;;;;;;15.36;54.15;99932.39;154008;1101;103131;-79
2021/05/25 00:25:26;;;;;;;8.03;3.60;;;;;;;15.35;53.88;99925.34;153952;1094;103279;-75
2021/05/25 00:28:30;;;;;;;5.60;2.80;;;;;;;15.36;54.28;99942.30;154037;1101;103189;-76
2021/05/25 00:31:33;;;;;;;4.87;3.00;;;;;;;15.34;54.55;99945.20;153954;1096;103141;-78
2021/05/25 00:34:37;;;;;;;5.10;3.25;;;;;;;15.30;54.42;99936.68;153948;1101;103190;-78
2021/05/25 00:37:40;;;;;;;5.80;3.10;;;;;;;15.27;54.75;99941.60;153987;1101;103123;-78
2021/05/25 00:40:44;;;;;;;5.25;3.15;;;;;;;15.25;55.27;99936.41;153942;1096;103178;-77
2021/05/25 00:43:48;;;;;;;4.48;3.05;;;;;;;15.23;55.11;99937.64;153990;1101;103162;-78
2021/05/25 00:46:52;;;;;;;3.93;2.50;;;;;;;15.18;55.57;99935.50;153981;1101;103221;-78
2021/05/25 00:50:09;;;;;;;5.27;2.90;;;;;;;15.19;55.77;99921.05;153930;1094;103240;-80
2021/05/25 00:53:13;;;;;;;4.13;3.07;;;;;;;15.24;56.00;99912.41;153981;1101;103242;-81
2021/05/25 00:56:17;;;;;;;4.07;3.00;;;;;;;15.26;56.17;99897.77;154054;1101;103221;-81
2021/05/25 00:59:21;;;;;;;6.13;3.10;;;;;;;15.26;56.55;99878.95;153966;1095;103141;-80
2021/05/25 01:02:25;;;;;;;4.00;2.73;;;;;;;15.22;56.14;99856.18;153949;1096;103140;-82
2021/05/25 01:05:29;;;;;;;3.73;2.95;;;;;;;15.18;56.83;99860.25;153971;1101;103187;-80
2021/05/25 01:08:36;;;;;;;3.83;2.93;;;;;;;15.15;56.70;99860.66;154091;1101;103132;-81
2021/05/25 01:11:41;;;;;;;5.75;3.10;;;;;;;15.11;56.85;99856.70;154041;1096;103260;-81
2021/05/25 01:14:50;;;;;;;5.38;3.25;;;;;;;15.07;57.23;99853.55;154089;1101;103129;-82
2021/05/25 01:17:55;;;;;;;7.33;3.30;;;;;;;15.02;57.38;99844.41;154130;1095;103142;-82
2021/05/25 01:20:59;;;;;;;5.27;3.37;;;;;;;14.99;57.79;99845.63;154074;1101;103125;-81
2021/05/25 01:24:03;;;;;;;5.30;2.70;;;;;;;14.90;57.80;99838.72;154270;1101;103153;-83
2021/05/25 01:27:08;;;;;;;3.70;2.60;;;;;;;14.91;57.70;99843.05;154830;1101;103199;-84
2021/05/25 01:30:13;;;;;;;3.97;2.87;;;;;;;14.91;57.84;99835.84;154850;1096;103185;-85
2021/05/25 01:33:17;;;;;;;5.17;2.97;;;;;;;14.98;58.04;99832.38;154113;1101;103119;-84
2021/05/25 01:36:21;;;;;;;3.40;2.90;;;;;;;15.00;57.93;99824.96;154052;1096;103323;-83
2021/05/25 01:39:24;;;;;;;3.60;2.87;;;;;;;15.03;57.82;99824.55;154082;1101;103139;-84
2021/05/25 01:42:34;;;;;;;4.67;2.93;;;;;;;15.02;58.20;99818.36;154097;1094;103259;-83
2021/05/25 01:45:38;;;;;;;4.58;3.33;;;;;;;15.00;58.00;99823.09;154079;1101;103125;-82
2021/05/25 01:48:42;;;;;;;7.83;3.23;;;;;;;14.98;58.11;99821.64;154092;1101;103221;-81
2021/05/25 01:51:51;;;;;;;5.47;3.30;;;;;;;14.98;58.49;99810.89;154043;1101;103139;-80
2021/05/25 01:55:00;;;;;;;4.90;3.20;;;;;;;14.91;58.57;99817.04;154117;1101;103217;-81
2021/05/25 01:58:07;;;;;;;3.80;2.80;;;;;;;14.85;58.58;99817.78;154147;1096;103248;-81
2021/05/25 02:01:13;;;;;;;3.20;2.40;;;;;;;14.84;58.97;99813.45;154083;1101;103221;-85
2021/05/25 02:04:17;;;;;;;3.30;2.80;;;;;;;14.87;59.05;99809.53;154072;1101;103241;-81
2021/05/25 02:07:20;;;;;;;5.48;3.05;;;;;;;14.89;59.78;99804.80;154104;1101;103215;-83
2021/05/25 02:10:35;;;;;;;4.28;2.95;;;;;;;14.84;59.20;99805.39;154080;1096;103191;-82
2021/05/25 02:13:40;;;;;;;4.10;3.25;;;;;;;14.83;59.58;99794.83;154281;1095;103282;-80
2021/05/25 02:16:43;;;;;;;4.20;3.10;;;;;;;14.80;59.36;99793.38;154049;1101;103608;-83
2021/05/25 02:19:47;;;;;;;3.93;3.30;;;;;;;14.78;59.93;99789.19;154075;1095;103139;-85
2021/05/25 02:22:50;;;;;;;5.20;3.40;;;;;;;14.73;59.75;99779.04;154044;1101;103139;-82
2021/05/25 02:25:55;;;;;;;4.08;3.38;;;;;;;14.70;59.97;99776.72;154114;1094;103195;-82
2021/05/25 02:28:58;;;;;;;3.68;2.98;;;;;;;14.66;60.17;99781.64;154051;1096;103219;-81
2021/05/25 02:32:02;;;;;;;4.68;2.73;;;;;;;14.64;60.30;99788.23;154092;1095;103139;-80
2021/05/25 02:35:06;;;;;;;5.60;2.95;;;;;;;14.62;60.21;99784.91;154065;1096;103151;-80
2021/05/25 02:38:13;;;;;;;4.00;3.10;;;;;;;14.62;60.37;99776.86;154079;1101;103164;-79
2021/05/25 02:41:17;;;;;;;5.00;2.85;;;;;;;14.64;60.25;99772.13;153973;1101;103200;-81
2021/05/25 02:44:20;;;;;;;4.08;3.10;;;;;;;14.64;60.64;99761.38;154094;1096;103257;-79
2021/05/25 02:47:24;;;;;;;3.60;3.10;;;;;;;14.62;60.35;99736.58;154068;1096;103195;-82
2021/05/25 02:50:28;;;;;;;4.30;3.30;;;;;;;14.58;60.61;99741.50;153991;1101;103112;-81
2021/05/25 02:53:31;;;;;;;3.87;3.03;;;;;;;14.54;60.72;99738.33;154429;1101;103218;-82
2021/05/25 02:56:35;;;;;;;4.35;3.00;;;;;;;14.51;60.82;99733.36;154158;1101;103250;-82
2021/05/25 02:59:39;;;;;;;4.40;2.90;;;;;;;14.53;60.94;99727.81;154029;1096;103744;-78
2021/05/25 03:02:43;;;;;;;4.40;2.70;;;;;;;14.58;60.93;99719.20;154260;1101;103188;-87
2021/05/25 03:05:47;;;;;;;4.90;3.10;;;;;;;14.57;60.91;99717.52;154661;1101;103216;-79
2021/05/25 03:08:51;;;;;;;3.90;3.13;;;;;;;14.57;61.03;99712.16;154525;1101;103218;-80
2021/05/25 03:11:54;;;;;;;3.63;2.83;;;;;;;14.60;61.41;99712.60;154188;1101;103141;-76
2021/05/25 03:14:58;;;;;;;4.40;2.93;;;;;;;14.62;61.32;99709.73;154011;1095;103387;-78
2021/05/25 03:18:02;;;;;;;4.55;3.18;;;;;;;14.64;61.28;99705.00;153982;1101;103219;-78
2021/05/25 03:21:06;;;;;;;4.38;3.00;;;;;;;14.62;61.46;99707.87;153972;1101;103173;-79
2021/05/25 03:24:10;;;;;;;5.10;3.10;;;;;;;14.58;61.61;99695.86;153930;1101;103119;-78
2021/05/25 03:27:13;;;;;;;3.37;2.40;;;;;;;14.61;61.56;99687.43;153980;1101;103216;-79
2021/05/25 03:30:21;;;;;;;3.17;2.77;;;;;;;14.66;61.62;99694.89;153924;1101;103269;-79
2021/05/25 03:33:25;;;;;;;4.88;2.70;;;;;;;14.71;61.56;99684.41;153973;1101;103139;-81
2021/05/25 03:36:28;;;;;;;3.13;2.73;;;;;;;14.75;61.57;99693.73;153976;1101;103097;-78
2021/05/25 03:39:32;;;;;;;3.13;2.60;;;;;;;14.76;61.71;99698.09;153929;1101;103178;-80
2021/05/25 03:42:36;;;;;;;4.27;2.80;;;;;;;14.76;61.68;99689.19;154078;1096;103225;-83
2021/05/25 03:45:39;;;;;;;4.30;3.20;;;;;;;14.75;61.74;99693.73;154089;1101;103280;-82
2021/05/25 03:48:43;;;;;;;4.17;2.67;;;;;;;14.74;61.89;99694.75;154097;1101;103239;-81
2021/05/25 03:51:47;;;;;;;4.00;2.90;;;;;;;14.68;61.76;99693.70;154082;1096;103118;-81
2021/05/25 03:54:53;;;;;;;4.57;2.60;;;;;;;14.64;62.06;99696.94;154080;1101;103150;-80
2021/05/25 04:01:21;;;;;;;2.53;2.33;;;;;;;14.69;62.00;99702.58;153950;1096;103195;-78
2021/05/25 04:04:24;;;;;;;3.77;2.80;;;;;;;14.73;62.28;99711.90;154010;1101;103222;-79
2021/05/25 04:07:28;;;;;;;2.80;2.50;;;;;;;14.74;62.04;99713.55;153941;1101;103232;-80
2021/05/25 04:10:31;;;;;;;3.78;2.80;;;;;;;14.72;62.42;99715.59;153977;1096;103139;-80
2021/05/25 04:13:35;;;;;;;4.37;2.73;;;;;;;14.68;62.45;99709.81;153980;1101;103224;-81
2021/05/25 04:16:41;;;;;;;3.03;2.65;;;;;;;14.65;62.59;99714.73;153995;1101;103218;-82
2021/05/25 04:19:45;;;;;;;3.15;2.80;;;;;;;14.61;62.78;99718.83;154111;1101;103219;-82
2021/05/25 04:22:49;;;;;;;3.53;2.50;;;;;;;14.59;62.83;99718.16;154058;1101;103253;-81
2021/05/25 04:25:52;;;;;;;3.18;2.40;;;;;;;14.61;63.31;99725.02;154065;1101;103147;-81
2021/05/25 04:28:56;;;;;;;3.08;2.50;;;;;;;14.66;62.89;99727.11;154093;1101;103125;-81
2021/05/25 04:31:59;;;;;;;3.30;2.80;;;;;;;14.70;63.00;99725.70;154044;1096;103269;-82
2021/05/25 04:35:04;;;;;;;3.00;2.70;;;;;;;14.71;63.67;99730.06;154061;1101;103244;-82
2021/05/25 04:38:08;;;;;;;3.03;2.70;;;;;;;14.69;63.74;99738.31;154118;1092;103216;-79
2021/05/25 04:41:11;;;;;;;3.38;2.68;;;;;;;14.67;63.51;99736.84;154042;1096;103139;-80
2021/05/25 04:44:15;;;;;;;3.63;2.60;;;;;;;14.62;64.22;99732.03;154034;1096;103262;-81
2021/05/25 04:47:19;;;;;;;4.18;2.30;;;;;;;14.62;63.81;99732.03;153964;1101;103178;-82
2021/05/25 04:50:23;;;;;;;3.47;2.50;;;;;;;14.64;64.13;99737.22;154487;1101;103583;-80
2021/05/25 04:53:26;;;;;;;4.20;2.67;;;;;;;14.68;64.74;99738.49;154111;1101;103112;-80
2021/05/25 04:56:30;;;;;;;4.68;3.00;;;;;;;14.71;63.64;99735.44;153941;1096;103199;-79
2021/05/25 04:59:33;;;;;;;5.23;2.80;;;;;;;14.71;64.29;99725.52;153962;1101;103151;-81
2021/05/25 05:02:37;;;;;;;4.90;3.00;;;;;;;14.71;64.19;99730.06;153948;1096;103221;-79
2021/05/25 05:05:41;;;;;;;4.00;2.77;;;;;;;14.70;64.25;99725.70;153980;1101;103211;-80
2021/05/25 05:08:44;;;;;;;3.83;2.58;;;;;;;14.70;64.25;99723.02;153947;1096;103243;-78
2021/05/25 05:11:48;;;;;;;3.63;2.63;;;;;;;14.76;64.94;99724.09;153954;1101;103126;-79
2021/05/25 05:14:51;;;;;;;3.20;2.60;;;;;;;14.83;64.91;99723.13;154097;1096;103187;-82
2021/05/25 05:17:55;;;;;;;3.37;2.57;;;;;;;14.85;64.10;99726.45;154053;1101;103270;-79
2021/05/25 05:20:59;;;;;;;4.20;2.83;;;;;;;14.89;64.28;99725.03;154136;1101;103221;-80
2021/05/25 05:24:02;;;;;;;3.75;2.93;;;;;;;14.92;63.97;99724.66;154052;1101;103130;-80
2021/05/25 05:27:07;;;;;;;3.70;2.50;;;;;;;14.89;64.63;99725.03;154022;1101;103130;-78
2021/05/25 05:30:12;;;;;;;3.50;2.30;;;;;;;14.92;64.94;99721.16;154124;1096;103480;-81
2021/05/25 05:33:16;;;;;;;3.15;2.50;;;;;;;15.00;64.31;99722.87;154193;1096;103417;-82
2021/05/25 05:36:19;;;;;;;4.18;2.10;;;;;;;15.06;64.43;99725.59;154058;1101;103218;-83
2021/05/25 05:39:23;;;;;;;3.38;2.63;;;;;;;15.12;64.28;99723.98;154055;1101;103224;-81
2021/05/25 05:42:27;;;;;;;3.30;2.45;;;;;;;15.15;64.54;99725.46;154042;1101;103275;-82
2021/05/25 05:45:31;;;;;;;4.90;2.98;;;;;;;15.10;64.15;99726.03;154148;1101;103132;-81
2021/05/25 05:48:35;;;;;;;4.10;2.47;;;;;;;15.14;64.50;99726.47;154111;1100;103130;-81
2021/05/25 05:51:38;;;;;;;3.40;2.23;;;;;;;15.22;64.60;99720.94;154086;1096;103211;-83
2021/05/25 05:54:42;;;;;;;2.45;2.25;;;;;;;15.36;64.42;99719.16;154095;1096;103096;-81
2021/05/25 05:57:47;;;;;;;2.73;2.30;;;;;;;15.44;64.34;99719.03;154484;1101;103820;-84
2021/05/25 06:00:51;;;;;;;2.58;1.98;;;;;;;15.52;63.79;99732.30;154449;1096;103579;-80
2021/05/25 06:03:54;;;;;;;2.73;2.00;;;;;;;15.56;64.28;99722.81;154021;1101;103276;-80
2021/05/25 06:06:58;;;;;;;4.43;2.10;;;;;;;15.60;64.01;99717.87;154067;1101;103556;-78
2021/05/25 06:10:03;;;;;;;4.17;2.07;;;;;;;15.66;64.24;99722.44;155172;1096;103096;-78
2021/05/25 06:13:07;;;;;;;2.90;2.25;;;;;;;15.76;64.32;99711.34;154245;1101;103128;-80
2021/05/25 06:16:10;;;;;;;2.40;2.20;;;;;;;15.78;63.92;99712.83;154427;1101;103136;-82
2021/05/25 06:19:14;;;;;;;2.75;1.75;;;;;;;15.82;63.95;99707.84;154519;1101;103381;-80
2021/05/25 06:22:21;;;;;;;2.10;1.90;;;;;;;15.99;64.25;99719.91;154461;1096;103249;-78
2021/05/25 06:25:25;;;;;;;3.63;2.00;;;;;;;16.00;63.93;99708.13;154349;1101;103141;-80
2021/05/25 06:28:30;;;;;;;3.20;2.20;;;;;;;16.10;63.45;99703.19;154280;1095;103128;-79
2021/05/25 06:31:34;;;;;;;3.33;2.30;;;;;;;16.23;63.68;99712.35;154314;1101;103135;-79
2021/05/25 06:34:37;;;;;;;3.20;2.23;;;;;;;16.28;63.65;99712.55;154538;1101;103202;-82
2021/05/25 06:37:42;;;;;;;4.45;2.00;;;;;;;16.31;63.40;99704.08;154279;1096;103116;-83
2021/05/25 06:40:46;;;;;;;3.27;2.07;;;;;;;16.34;63.37;99711.76;154636;1096;103311;-81
2021/05/25 06:43:50;;;;;;;3.23;2.27;;;;;;;16.31;63.56;99704.08;154445;1101;103131;-80
2021/05/25 06:46:53;;;;;;;3.60;2.47;;;;;;;16.22;63.25;99705.30;154273;1096;103218;-80
2021/05/25 06:49:57;;;;;;;3.70;2.30;;;;;;;16.13;63.23;99709.20;154308;1101;103214;-84
2021/05/25 06:53:00;;;;;;;3.60;2.10;;;;;;;16.12;63.56;99704.86;154444;1101;103242;-83
2021/05/25 06:56:05;;;;;;;3.37;2.17;;;;;;;16.16;63.42;99703.42;154226;1096;103214;-82
2021/05/25 06:59:08;;;;;;;2.83;2.20;;;;;;;16.17;63.40;99695.15;154126;1096;103115;-82
2021/05/25 07:02:12;;;;;;;4.10;2.17;;;;;;;16.27;63.50;99700.14;154838;1101;103220;-80
2021/05/25 07:05:16;;;;;;;3.35;2.20;;;;;;;16.44;63.44;99703.28;154210;1096;103757;-83
2021/05/25 07:08:20;;;;;;;2.93;2.03;;;;;;;16.62;63.08;99692.72;154103;1101;103170;-80
2021/05/25 07:11:24;;;;;;;7.20;4.30;;;;;;;16.77;63.55;99697.91;154161;1101;103136;-81
2021/05/25 07:14:27;;;;;;;4.03;2.40;;;;;;;16.94;63.07;99692.97;154076;1101;103099;-81
2021/05/25 07:17:31;;;;;;;4.15;2.53;;;;;;;16.96;62.59;99696.28;154088;1095;103165;-82
2021/05/25 07:20:34;;;;;;;3.47;2.57;;;;;;;17.02;62.87;99689.23;154207;1096;103266;-83
2021/05/25 07:23:38;;;;;;;3.45;2.35;;;;;;;17.12;62.87;99697.70;154206;1096;103554;-81
2021/05/25 07:26:41;;;;;;;3.73;2.40;;;;;;;17.20;62.72;99707.44;154171;1101;103141;-82
2021/05/25 07:29:45;;;;;;;4.00;3.20;;;;;;;17.13;62.68;99675.12;154171;1096;103125;-83
2021/05/25 07:32:49;;;;;;;4.18;3.20;;;;;;;17.30;62.60;99685.44;154249;1101;103149;-82
2021/05/25 07:35:53;;;;;;;5.10;2.90;;;;;;;17.48;62.63;99672.13;154221;1096;103301;-82
2021/05/25 07:38:57;;;;;;;3.88;3.10;;;;;;;17.60;62.06;99689.29;154223;1101;103189;-82
2021/05/25 07:42:01;;;;;;;5.20;3.50;;;;;;;17.59;62.21;99676.86;154292;1096;103138;-82
2021/05/25 07:45:07;;;;;;;4.43;3.43;;;;;;;17.72;61.91;99683.23;154115;1095;103136;-82
2021/05/25 07:48:11;;;;;;;5.43;3.53;;;;;;;17.84;61.99;99695.88;154170;1101;103125;-83
2021/05/25 07:51:14;;;;;;;4.87;3.63;;;;;;;17.83;61.76;99690.66;154095;1101;103262;-83
2021/05/25 07:54:18;;;;;;;6.50;3.98;;;;;;;17.77;61.77;99686.13;154123;1101;103096;-82
2021/05/25 07:57:22;;;;;;;4.53;3.43;;;;;;;17.83;61.96;99691.48;154129;1096;103333;-84
2021/05/25 08:00:27;;;;;;;7.38;4.53;;;;;;;17.80;61.43;99689.23;154081;1096;103535;-86
2021/05/25 08:03:30;;;;;;;4.38;3.98;;;;;;;17.72;61.44;99683.23;154192;1096;103218;-85
2021/05/25 08:06:36;;;;;;;4.65;3.68;;;;;;;17.58;61.97;99696.77;154243;1096;103381;-81
2021/05/25 08:09:39;;;;;;;6.38;3.75;;;;;;;17.51;61.91;99693.26;154159;1101;103240;-83
2021/05/25 08:12:43;;;;;;;5.00;4.05;;;;;;;17.45;61.74;99696.81;154031;1101;103224;-82
2021/05/25 08:15:48;;;;;;;4.60;3.80;;;;;;;17.32;62.08;99704.93;154063;1096;103515;-84
2021/05/25 08:18:57;;;;;;;4.60;3.87;;;;;;;17.20;61.98;99702.88;154091;1096;103130;-84
2021/05/25 08:22:01;;;;;;;3.70;3.40;;;;;;;17.16;62.25;99695.42;154080;1096;103263;-82
2021/05/25 08:25:05;;;;;;;4.08;3.53;;;;;;;17.21;62.13;99695.63;154097;1096;103171;-85
2021/05/25 08:28:10;;;;;;;4.30;3.50;;;;;;;17.30;62.14;99699.74;154130;1101;103213;-82
2021/05/25 08:31:14;;;;;;;3.78;3.48;;;;;;;17.48;62.02;99709.88;154114;1101;103165;-82
2021/05/25 08:34:18;;;;;;;7.67;3.57;;;;;;;17.77;61.90;99699.63;154191;1096;103135;-87
2021/05/25 08:37:22;;;;;;;4.75;3.63;;;;;;;17.97;61.79;99703.07;154163;1101;103219;-83
2021/05/25 08:40:27;;;;;;;5.13;3.60;;;;;;;18.08;61.58;99706.16;154192;1096;103132;-84
2021/05/25 08:43:32;;;;;;;4.30;3.60;;;;;;;18.24;61.69;99705.64;154184;1096;103131;-82
2021/05/25 08:46:37;;;;;;;5.37;3.77;;;;;;;18.48;61.72;99716.73;154207;1094;103103;-82
2021/05/25 08:49:45;;;;;;;4.63;3.90;;;;;;;18.72;61.42;99705.09;154599;1101;103131;-84
2021/05/25 08:52:49;;;;;;;5.37;3.57;;;;;;;18.71;61.00;99708.86;154853;1101;103255;-82
2021/05/25 08:55:53;;;;;;;3.98;3.20;;;;;;;18.70;60.52;99701.79;154039;1095;103224;-83
2021/05/25 08:58:57;;;;;;;3.93;3.35;;;;;;;18.75;60.75;99696.56;154129;1101;103246;-83
2021/05/25 09:02:01;;;;;;;4.03;3.17;;;;;;;18.77;60.53;99691.77;154028;1101;103148;-78
2021/05/25 09:05:07;;;;;;;3.40;2.70;;;;;;;18.76;60.55;99691.98;154019;1096;103119;-78
2021/05/25 09:08:10;;;;;;;4.10;3.13;;;;;;;18.84;60.56;99697.13;153975;1095;103298;-82
2021/05/25 09:11:17;;;;;;;4.07;3.47;;;;;;;18.90;59.88;99695.42;154041;1101;103128;-80
2021/05/25 09:14:20;;;;;;;3.87;2.77;;;;;;;18.92;59.93;99688.77;155561;1101;103221;-84
2021/05/25 09:17:25;;;;;;;4.17;2.77;;;;;;;19.16;60.11;99697.06;154252;1096;103611;-82
2021/05/25 09:20:39;;;;;;;3.87;2.60;;;;;;;19.41;59.62;99691.60;154249;1096;103218;-78
2021/05/25 09:23:47;;;;;;;2.83;2.53;;;;;;;19.54;59.56;99699.57;154409;1101;103487;-83
2021/05/25 09:26:57;;;;;;;3.50;2.68;;;;;;;19.59;59.12;99704.30;154120;1096;103310;-84
2021/05/25 09:30:29;;;;;;;4.80;2.80;;;;;;;19.71;58.76;99701.69;154429;1101;103139;-83
2021/05/25 09:33:33;;;;;;;3.00;2.40;;;;;;;19.72;58.94;99703.36;154487;1096;103571;-83
2021/05/25 09:37:03;;;;;;;3.07;2.60;;;;;;;19.87;58.92;99706.50;154518;1096;103128;-79
2021/05/25 09:40:09;;;;;;;3.40;2.30;;;;;;;20.15;58.23;99702.38;154330;1101;103219;-83
2021/05/25 09:43:17;;;;;;;3.70;2.48;;;;;;;20.28;57.82;99701.38;154234;1101;103227;-83
2021/05/25 09:46:31;;;;;;;2.65;2.43;;;;;;;20.30;57.28;99702.78;154239;1096;103218;-84
2021/05/25 09:49:36;;;;;;;4.10;2.30;;;;;;;20.30;57.32;99705.49;154316;1101;103130;-81
2021/05/25 09:53:00;;;;;;;3.33;2.00;;;;;;;20.24;57.15;99711.02;155537;1101;103212;-86
2021/05/25 09:56:04;;;;;;;2.50;1.83;;;;;;;20.25;57.29;99713.51;154942;1101;103301;-83
2021/05/25 09:59:27;;;;;;;2.93;1.90;;;;;;;20.36;56.73;99710.02;154017;1101;103221;-79
2021/05/25 10:02:31;;;;;;;1.85;1.63;;;;;;;20.65;57.02;99702.11;154072;1101;103142;-84
2021/05/25 10:05:35;;;;;;;2.97;2.50;;;;;;;20.92;56.01;99693.52;154041;1096;103220;-83
2021/05/25 10:08:42;;;;;;;2.57;1.80;;;;;;;21.05;55.55;99703.31;154118;1094;103105;-83
2021/05/25 10:11:47;;;;;;;2.18;1.53;;;;;;;20.95;55.29;99706.61;154143;1101;103174;-83
2021/05/25 10:14:51;;;;;;;2.35;1.60;;;;;;;20.91;55.74;99705.44;154118;1096;103151;-83
2021/05/25 10:21:30;;;;;;;1.53;1.40;;;;;;;21.34;55.02;99699.66;153886;1096;103252;-83
2021/05/25 10:24:33;;;;;;;2.58;1.93;;;;;;;21.30;53.76;99708.50;154077;1101;103216;-83
2021/05/25 10:27:37;;;;;;;2.15;1.70;;;;;;;21.12;54.26;99709.45;154061;1094;103231;-84
2021/05/25 10:30:44;;;;;;;3.00;1.60;;;;;;;21.07;54.70;99715.58;154071;1101;103259;-84
2021/05/25 10:33:48;;;;;;;2.08;1.65;;;;;;;21.20;54.30;99705.56;154040;1101;103135;-84
2021/05/25 10:36:53;;;;;;;3.73;1.70;;;;;;;21.35;53.98;99705.91;154066;1101;103159;-84
2021/05/25 10:39:57;;;;;;;2.90;1.57;;;;;;;21.36;53.11;99710.26;154100;1094;103139;-84
2021/05/25 10:43:55;;;;;;;2.37;1.50;;;;;;;21.21;53.75;99726.19;154068;1096;103259;-84
2021/05/25 10:47:16;;;;;;;2.67;1.90;;;;;;;20.88;50.48;99735.72;154136;1096;103163;-83
2021/05/25 10:50:26;;;;;;;3.13;2.20;;;;;;;20.46;52.93;99732.99;154038;1101;103144;-83
2021/05/25 10:53:29;;;;;;;3.15;2.10;;;;;;;20.25;52.72;99737.07;154116;1096;103119;-85
2021/05/25 10:56:37;;;;;;;3.50;2.20;;;;;;;20.10;53.55;99737.47;154140;1101;103131;-84
2021/05/25 11:00:01;;;;;;;4.20;2.50;;;;;;;20.17;53.34;99739.03;154067;1101;103253;-82
2021/05/25 11:03:17;;;;;;;3.88;2.05;;;;;;;20.29;53.13;99732.84;154133;1101;103253;-84
2021/05/25 11:06:30;;;;;;;2.07;1.87;;;;;;;20.45;53.36;99723.23;154075;1094;103107;-83
2021/05/25 11:09:34;;;;;;;3.77;2.30;;;;;;;20.54;53.21;99729.98;154064;1096;103178;-83
2021/05/25 11:12:38;;;;;;;2.83;2.08;;;;;;;20.59;53.05;99719.25;154086;1096;103218;-83
2021/05/25 11:16:07;;;;;;;4.10;2.20;;;;;;;20.58;53.06;99733.88;154128;1101;103187;-84
2021/05/25 11:19:55;;;;;;;2.40;1.70;;;;;;;20.62;53.32;99724.25;154102;1096;103104;-83
2021/05/25 11:22:59;;;;;;;2.50;1.97;;;;;;;20.68;53.13;99727.92;154072;1094;103224;-84
2021/05/25 11:26:02;;;;;;;3.30;2.00;;;;;;;20.83;52.03;99724.77;154128;1101;103140;-83
2021/05/25 11:29:20;;;;;;;4.23;2.40;;;;;;;20.92;52.26;99726.05;154091;1101;103139;-84
2021/05/25 11:32:25;;;;;;;2.75;1.93;;;;;;;21.04;52.53;99712.53;154099;1096;103254;-84
2021/05/25 11:35:31;;;;;;;4.20;2.20;;;;;;;21.28;51.96;99716.88;154171;1101;103221;-84
2021/05/25 11:38:35;;;;;;;2.27;2.00;;;;;;;21.32;51.26;99714.52;154084;1101;103135;-84
2021/05/25 11:41:39;;;;;;;2.10;1.90;;;;;;;21.25;51.94;99724.66;154055;1096;103141;-83
2021/05/25 11:44:45;;;;;;;2.80;1.80;;;;;;;20.94;48.19;99759.22;154239;1101;103170;-85
2021/05/25 11:47:55;;;;;;;1.93;1.60;;;;;;;20.16;47.95;99775.29;154140;1101;103261;-84
2021/05/25 11:51:09;;;;;;;3.75;1.80;;;;;;;19.47;50.26;99788.11;154142;1101;103165;-83
2021/05/25 11:54:16;;;;;;;4.20;1.30;;;;;;;18.99;49.65;99807.66;154096;1095;103246;-84
2021/05/25 11:57:29;;;;;;;2.68;1.20;;;;;;;18.57;50.48;99804.56;154225;1096;103567;-83
2021/05/25 12:00:35;;;;;;;1.95;1.20;;;;;;;18.24;50.93;99817.20;154166;1101;103200;-84
2021/05/25 12:03:40;;;;;;;4.57;1.37;;;;;;;17.87;51.45;99821.47;154116;1101;103191;-84
2021/05/25 12:06:54;;;;;;;1.30;1.10;;;;;;;17.61;51.69;99831.25;154190;1101;103219;-86
2021/05/25 12:10:00;;;;;;;2.17;1.23;;;;;;;17.42;52.15;99824.83;154120;1101;103139;-84
2021/05/25 12:13:05;;;;;;;2.13;1.30;;;;;;;17.28;52.20;99833.95;154090;1095;103199;-83
2021/05/25 12:16:14;;;;;;;2.03;1.50;;;;;;;17.13;52.49;99839.56;154154;1095;103227;-84
2021/05/25 12:19:23;;;;;;;2.10;1.30;;;;;;;17.06;52.98;99836.84;154071;1101;103253;-83
2021/05/25 12:22:35;;;;;;;2.68;1.63;;;;;;;16.96;53.39;99839.13;154078;1101;103228;-84
2021/05/25 12:25:40;;;;;;;3.70;1.70;;;;;;;16.78;53.10;99834.30;154067;1101;103190;-83
2021/05/25 12:28:46;;;;;;;4.85;1.70;;;;;;;16.63;53.41;99836.34;154125;1096;103142;-84
2021/05/25 12:31:50;;;;;;;3.70;1.53;;;;;;;16.55;53.87;99834.66;154026;1096;103148;-84
2021/05/25 12:34:54;;;;;;;2.48;2.00;;;;;;;16.53;54.04;99833.17;154056;1101;103195;-86
2021/05/25 12:38:18;;;;;;;3.90;1.88;;;;;;;16.49;54.74;99833.59;154033;1101;103217;-83
2021/05/25 12:41:21;;;;;;;2.23;1.90;;;;;;;16.45;54.19;99840.39;154034;1096;103193;-83
2021/05/25 12:44:30;;;;;;;2.50;1.80;;;;;;;16.51;54.30;99836.06;154079;1101;103242;-83
2021/05/25 12:47:52;;;;;;;3.90;2.00;;;;;;;16.64;54.29;99827.20;154336;1101;103075;-82
2021/05/25 12:50:55;;;;;;;;;;;;;;;16.78;54.78;99823.52;154517;1101;103190;-83
2021/05/25 12:54:00;;;;;;;2.90;1.75;;;;;;;16.88;54.89;99821.28;154134;1101;103141;-83
2021/05/25 12:57:04;;;;;;;4.40;1.90;;;;;;;17.00;54.68;99834.98;154119;1101;103215;-83
2021/05/25 13:00:10;;;;;;;3.17;1.93;;;;;;;17.06;54.58;99841.41;154157;1095;103131;-84
2021/05/25 13:03:26;;;;;;;3.40;1.70;;;;;;;17.23;54.81;99844.55;154075;1096;103212;-84
2021/05/25 13:06:33;;;;;;;1.90;1.60;;;;;;;17.29;54.75;99853.67;154106;1101;103470;-83
2021/05/25 13:09:40;;;;;;;3.73;1.60;;;;;;;17.21;54.58;99863.62;154147;1096;103109;-84
2021/05/25 13:12:44;;;;;;;3.30;1.90;;;;;;;17.21;54.58;99860.92;154222;1101;103142;-82
2021/05/25 13:15:49;;;;;;;2.35;1.80;;;;;;;17.24;54.63;99860.52;154099;1101;103219;-84
2021/05/25 13:18:53;;;;;;;3.25;1.60;;;;;;;17.19;54.63;99863.00;154087;1095;103151;-83
2021/05/25 13:21:57;;;;;;;3.33;1.70;;;;;;;17.13;54.45;99866.52;154032;1101;103259;-83
2021/05/25 13:25:03;;;;;;;3.53;2.08;;;;;;;17.15;54.34;99859.05;154061;1101;103221;-83
2021/05/25 13:28:07;;;;;;;2.73;1.40;;;;;;;17.24;54.32;99863.22;154103;1095;103240;-85
2021/05/25 13:31:17;;;;;;;2.77;1.70;;;;;;;17.36;54.40;99863.42;154055;1094;103224;-83
2021/05/25 13:34:24;;;;;;;2.83;1.70;;;;;;;17.39;53.89;99854.08;154126;1096;103157;-83
2021/05/25 13:37:28;;;;;;;3.35;2.08;;;;;;;17.38;54.26;99868.59;154134;1101;103244;-83
2021/05/25 13:40:32;;;;;;;5.53;2.70;;;;;;;17.29;53.92;99867.16;154123;1095;103242;-84
2021/05/25 13:43:35;;;;;;;3.03;2.23;;;;;;;17.33;53.69;99871.09;154114;1096;103263;-84
2021/05/25 13:46:40;;;;;;;4.43;1.85;;;;;;;17.48;53.88;99876.30;154151;1101;103160;-84
2021/05/25 13:49:46;;;;;;;2.58;2.00;;;;;;;17.61;52.80;99874.42;154214;1101;103550;-84
2021/05/25 13:52:50;;;;;;;3.10;1.80;;;;;;;17.52;52.72;99885.63;154168;1101;103275;-84
2021/05/25 13:55:55;;;;;;;2.25;1.33;;;;;;;17.51;52.40;99887.47;154218;1101;103137;-82
2021/05/25 13:59:06;;;;;;;2.23;1.23;;;;;;;17.52;52.02;99891.03;154101;1101;103217;-83
2021/05/25 14:02:10;;;;;;;3.25;1.25;;;;;;;17.34;51.51;99897.02;154100;1096;103133;-83
2021/05/25 14:05:15;;;;;;;1.90;1.00;;;;;;;17.20;52.28;99896.17;154154;1095;103384;-83
2021/05/25 14:08:19;;;;;;;2.23;1.67;;;;;;;17.14;51.97;99889.73;154050;1101;103270;-83
2021/05/25 14:11:24;;;;;;;2.90;2.10;;;;;;;16.90;52.33;99895.69;154062;1096;103336;-84
2021/05/25 14:14:28;;;;;;;2.23;1.30;;;;;;;16.71;52.04;99903.49;154073;1096;103202;-84
2021/05/25 14:17:32;;;;;;;2.35;1.75;;;;;;;16.55;52.05;99901.98;154115;1096;103125;-85
2021/05/25 14:20:36;;;;;;;2.93;1.30;;;;;;;16.41;51.81;99905.64;154074;1101;103557;-83